Time;durP1;ratioP1;P1;durP2;ratioP2;P2;SDS_P1;SDS_P2;PMS_P1;PMS_P2;Temp;Humidity;BMP_temperature;BMP_pressure;BME280_temperature;BME280_humidity;BME280_pressure;Samples;Min_cycle;Max_cycle;Signal;HPM_P1;HPM_P2
2023/01/27 00:02:00;;;;;;;;;;;-0.90;99.90;;;;;;4930137;29;20022;-72
2023/01/27 00:04:31;;;;;;;;;;;-1.00;99.90;;;;;;4898784;29;19926;-73
2023/01/27 00:07:01;;;;;;;;;;;-1.00;99.90;;;;;;4926799;29;19934;-72
2023/01/27 00:09:36;;;;;;;;;;;-1.00;99.90;;;;;;4929798;29;19978;-72
2023/01/27 00:15:08;;;;;;;;;;;-1.00;99.90;;;;;;4913090;29;19927;-72
2023/01/27 00:17:37;;;;;;;;;;;-1.00;99.90;;;;;;4913607;29;19982;-73
2023/01/27 00:20:06;;;;;;;;;;;-1.00;99.90;;;;;;4915742;29;19931;-72
2023/01/27 00:25:22;;;;;;;;;;;-0.90;99.90;;;;;;4925599;29;19934;-73
2023/01/27 00:27:52;;;;;;;;;;;-0.90;99.90;;;;;;4929503;29;20298;-72
2023/01/27 00:30:21;;;;;;;;;;;-1.00;99.90;;;;;;4910833;29;19927;-73
2023/01/27 00:35:37;;;;;;;;;;;-1.00;99.90;;;;;;4952043;29;20404;-73
2023/01/27 00:38:06;;;;;;;;;;;-1.00;99.90;;;;;;4929397;29;19931;-73
2023/01/27 00:40:36;;;;;;;;;;;-0.90;99.90;;;;;;4927408;29;19927;-73
2023/01/27 00:43:10;;;;;;;;;;;-1.00;99.90;;;;;;4912704;29;19926;-73
2023/01/27 00:45:48;;;;;;;;;;;-1.00;99.90;;;;;;4902940;29;19935;-72
2023/01/27 00:48:27;;;;;;;;;;;-0.90;99.90;;;;;;4909997;29;19970;-72
2023/01/27 00:50:57;;;;;;;;;;;-0.90;99.90;;;;;;4924083;29;19927;-73
2023/01/27 00:53:26;;;;;;;;;;;-0.90;99.90;;;;;;4912566;29;19934;-72
2023/01/27 00:56:01;;;;;;;;;;;-0.90;99.90;;;;;;4925416;29;19937;-72
2023/01/27 00:58:30;;;;;;;;;;;-0.90;99.90;;;;;;4927298;29;19974;-72
2023/01/27 01:01:00;;;;;;;;;;;-1.00;99.90;;;;;;4908744;29;19931;-73
2023/01/27 01:03:33;;;;;;;;;;;-1.00;99.90;;;;;;4924602;29;19927;-73
2023/01/27 01:06:06;;;;;;;;;;;-1.00;99.90;;;;;;4918822;29;19934;-73
2023/01/27 01:08:36;;;;;;;;;;;-1.00;99.90;;;;;;4932248;29;19927;-73
2023/01/27 01:11:06;;;;;;;;;;;-1.10;99.90;;;;;;4909522;29;20395;-73
2023/01/27 01:13:36;;;;;;;;;;;-1.10;99.90;;;;;;4927194;29;20022;-73
2023/01/27 01:16:06;;;;;;;;;;;-1.10;99.90;;;;;;4908899;29;19927;-73
2023/01/27 01:18:36;;;;;;;;;;;-1.10;99.90;;;;;;4910029;29;20406;-71
2023/01/27 01:21:05;;;;;;;;;;;-1.10;99.90;;;;;;4924311;29;20010;-72
2023/01/27 01:23:42;;;;;;;;;;;-1.10;99.90;;;;;;4908376;29;20919;-73
2023/01/27 01:26:11;;;;;;;;;;;-1.10;99.90;;;;;;4908752;29;19927;-73
2023/01/27 01:28:40;;;;;;;;;;;-1.10;99.90;;;;;;4923721;29;19931;-72
2023/01/27 01:31:11;;;;;;;;;;;-1.10;99.90;;;;;;4912713;29;19950;-73
2023/01/27 01:33:44;;;;;;;;;;;-1.10;99.90;;;;;;4895333;29;19965;-73
2023/01/27 01:36:14;;;;;;;;;;;-1.00;99.90;;;;;;4925874;29;19991;-73
2023/01/27 01:38:44;;;;;;;;;;;-1.00;99.90;;;;;;4896257;29;19966;-72
2023/01/27 01:41:14;;;;;;;;;;;-1.00;99.90;;;;;;4908608;29;19933;-72
2023/01/27 01:43:44;;;;;;;;;;;-1.00;99.90;;;;;;4927194;28;20287;-72
2023/01/27 01:46:14;;;;;;;;;;;-1.00;99.90;;;;;;4908468;29;20311;-73
2023/01/27 01:48:46;;;;;;;;;;;-1.10;99.90;;;;;;4926192;29;19927;-73
2023/01/27 01:51:18;;;;;;;;;;;-1.00;99.90;;;;;;4925085;29;19927;-71
2023/01/27 01:53:51;;;;;;;;;;;-1.00;99.90;;;;;;4908454;29;19934;-72
2023/01/27 01:56:33;;;;;;;;;;;-1.00;99.90;;;;;;4927166;29;19933;-73
2023/01/27 01:59:11;;;;;;;;;;;-1.00;99.90;;;;;;4910263;29;20394;-73
2023/01/27 02:01:44;;;;;;;;;;;-1.00;99.90;;;;;;4924360;29;19934;-72
2023/01/27 02:04:18;;;;;;;;;;;-1.00;99.90;;;;;;4926564;29;20297;-72
2023/01/27 02:07:01;;;;;;;;;;;-1.00;99.90;;;;;;4926104;29;19931;-72
2023/01/27 02:09:30;;;;;;;;;;;-1.00;99.90;;;;;;4925687;29;19927;-72
2023/01/27 02:12:00;;;;;;;;;;;-1.00;99.90;;;;;;4910539;29;19933;-73
2023/01/27 02:14:30;;;;;;;;;;;-1.00;99.90;;;;;;4924740;29;19931;-73
2023/01/27 02:16:59;;;;;;;;;;;-1.00;99.90;;;;;;4916430;29;19962;-72
2023/01/27 02:19:44;;;;;;;;;;;-1.10;99.90;;;;;;4916761;29;19926;-73
2023/01/27 02:22:18;;;;;;;;;;;-1.00;99.90;;;;;;4918538;29;19982;-72
2023/01/27 02:24:51;;;;;;;;;;;-1.00;99.90;;;;;;4916194;29;19927;-72
2023/01/27 02:27:20;;;;;;;;;;;-1.00;99.90;;;;;;4907555;29;20386;-73
2023/01/27 02:29:50;;;;;;;;;;;-1.00;99.90;;;;;;4917242;29;19934;-73
2023/01/27 02:32:22;;;;;;;;;;;-1.10;99.90;;;;;;4910530;29;20382;-73
2023/01/27 02:34:54;;;;;;;;;;;-1.10;99.90;;;;;;4907739;29;20049;-73
2023/01/27 02:37:24;;;;;;;;;;;-1.10;99.90;;;;;;4908457;29;19927;-71
2023/01/27 02:39:55;;;;;;;;;;;-1.10;99.90;;;;;;4924624;29;20398;-70
2023/01/27 02:42:24;;;;;;;;;;;-1.10;99.90;;;;;;4922451;29;19937;-70
2023/01/27 02:44:54;;;;;;;;;;;-1.10;99.90;;;;;;4926082;29;19970;-71
2023/01/27 02:47:23;;;;;;;;;;;-1.10;99.90;;;;;;4906492;29;20359;-71
2023/01/27 02:49:53;;;;;;;;;;;-1.10;99.90;;;;;;4925183;29;20305;-71
2023/01/27 02:52:22;;;;;;;;;;;-1.00;99.90;;;;;;4907310;29;20354;-71
2023/01/27 02:54:52;;;;;;;;;;;-1.10;99.90;;;;;;4907939;29;20009;-71
2023/01/27 02:57:28;;;;;;;;;;;-1.10;99.90;;;;;;4923746;29;19927;-71
2023/01/27 03:00:24;;;;;;;;;;;-1.00;99.90;;;;;;4926151;28;19930;-71
2023/01/27 03:02:53;;;;;;;;;;;-1.00;99.90;;;;;;4906805;29;20484;-71
2023/01/27 03:05:26;;;;;;;;;;;-1.10;99.90;;;;;;4902416;29;19931;-71
2023/01/27 03:07:56;;;;;;;;;;;-1.10;99.90;;;;;;4892880;29;19983;-71
2023/01/27 03:10:25;;;;;;;;;;;-1.20;99.90;;;;;;4915976;29;20386;-72
2023/01/27 03:12:57;;;;;;;;;;;-1.20;99.90;;;;;;4906927;29;20290;-71
2023/01/27 03:18:16;;;;;;;;;;;-1.10;99.90;;;;;;4925404;29;19983;-72
2023/01/27 03:20:47;;;;;;;;;;;-1.10;99.90;;;;;;4925135;29;19937;-71
2023/01/27 03:23:17;;;;;;;;;;;-1.10;99.90;;;;;;4921858;29;19979;-72
2023/01/27 03:25:50;;;;;;;;;;;-1.10;99.90;;;;;;4901940;29;19927;-71
2023/01/27 03:28:19;;;;;;;;;;;-1.00;99.90;;;;;;4926720;29;20438;-70
2023/01/27 03:31:03;;;;;;;;;;;-1.00;99.90;;;;;;4943891;29;19951;-73
2023/01/27 03:33:51;;;;;;;;;;;-1.10;99.90;;;;;;4927004;29;19927;-71
2023/01/27 03:47:56;;;;;;;;;;;-1.10;99.90;;;;;;4922483;29;19931;-71
2023/01/27 03:50:36;;;;;;;;;;;-1.00;99.90;;;;;;4924785;29;19927;-72
2023/01/27 03:53:06;;;;;;;;;;;-1.10;99.90;;;;;;4923026;29;19927;-70
2023/01/27 03:55:47;;;;;;;;;;;-1.10;99.90;;;;;;4896208;29;20271;-71
2023/01/27 03:58:22;;;;;;;;;;;-1.10;99.90;;;;;;4933058;29;20014;-71
2023/01/27 04:00:56;;;;;;;;;;;-1.20;99.90;;;;;;4930258;29;20358;-72
2023/01/27 04:09:01;;;;;;;;;;;-1.10;99.90;;;;;;4914550;29;20003;-73
2023/01/27 04:14:18;;;;;;;;;;;-1.10;99.90;;;;;;4925304;29;20022;-71
2023/01/27 04:16:47;;;;;;;;;;;-1.10;99.90;;;;;;4923952;29;19927;-72
2023/01/27 04:19:16;;;;;;;;;;;-1.10;99.90;;;;;;4925917;29;20348;-71
2023/01/27 04:21:45;;;;;;;;;;;-1.10;99.90;;;;;;4912006;29;20271;-72
2023/01/27 04:24:21;;;;;;;;;;;-1.10;99.90;;;;;;4927851;29;19930;-71
2023/01/27 04:26:49;;;;;;;;;;;-1.10;99.90;;;;;;4925667;29;19927;-70
2023/01/27 04:29:22;;;;;;;;;;;-1.00;99.90;;;;;;4928667;29;19934;-71
2023/01/27 04:31:54;;;;;;;;;;;-1.10;99.90;;;;;;4924867;29;19930;-72
2023/01/27 04:34:26;;;;;;;;;;;-1.10;99.90;;;;;;4926646;29;20390;-72
2023/01/27 04:36:54;;;;;;;;;;;-1.10;99.90;;;;;;4925994;29;20374;-70
2023/01/27 04:39:25;;;;;;;;;;;-1.10;99.90;;;;;;4916833;29;19956;-71
2023/01/27 04:41:57;;;;;;;;;;;-1.10;99.90;;;;;;4925274;29;20382;-70
2023/01/27 04:44:24;;;;;;;;;;;-1.10;99.90;;;;;;4912573;29;19978;-71
2023/01/27 04:46:56;;;;;;;;;;;-1.10;99.90;;;;;;4924443;29;19975;-72
2023/01/27 04:49:28;;;;;;;;;;;-1.20;99.90;;;;;;4926479;29;19978;-71
2023/01/27 04:51:59;;;;;;;;;;;-1.20;99.90;;;;;;4925345;29;20307;-71
2023/01/27 04:54:31;;;;;;;;;;;-1.10;99.90;;;;;;4913291;29;19954;-71
2023/01/27 04:57:03;;;;;;;;;;;-1.20;99.90;;;;;;4934709;29;19959;-72
2023/01/27 04:59:35;;;;;;;;;;;-1.20;99.90;;;;;;4912510;29;20377;-71
2023/01/27 05:02:06;;;;;;;;;;;-1.20;99.90;;;;;;4913132;29;19927;-70
2023/01/27 05:04:38;;;;;;;;;;;-1.20;99.90;;;;;;4919116;29;19927;-71
2023/01/27 05:07:10;;;;;;;;;;;-1.20;99.90;;;;;;4897273;29;19927;-72
2023/01/27 05:09:36;;;;;;;;;;;-1.20;99.90;;;;;;4929371;29;19927;-71
2023/01/27 05:12:08;;;;;;;;;;;-1.10;99.90;;;;;;4934056;29;19927;-71
2023/01/27 05:14:40;;;;;;;;;;;-1.20;99.90;;;;;;4920195;29;20038;-70
2023/01/27 05:17:06;;;;;;;;;;;-1.10;99.90;;;;;;4920007;29;19934;-71
2023/01/27 05:19:33;;;;;;;;;;;-1.20;99.90;;;;;;4933566;29;19934;-70
2023/01/27 05:22:05;;;;;;;;;;;-1.20;99.90;;;;;;4905199;29;19931;-73
2023/01/27 05:24:31;;;;;;;;;;;-1.20;99.90;;;;;;4936969;29;19926;-69
2023/01/27 05:27:03;;;;;;;;;;;-1.20;99.90;;;;;;4919207;29;20287;-70
2023/01/27 05:29:35;;;;;;;;;;;-1.20;99.90;;;;;;4924319;29;19949;-70
2023/01/27 05:32:02;;;;;;;;;;;-1.10;99.90;;;;;;4918880;29;19926;-71
2023/01/27 05:34:31;;;;;;;;;;;-1.10;99.90;;;;;;4903675;29;19931;-73
2023/01/27 05:37:01;;;;;;;;;;;-1.10;99.90;;;;;;4935120;29;20013;-71
2023/01/27 05:39:32;;;;;;;;;;;-1.20;99.90;;;;;;4935414;29;19934;-71
2023/01/27 05:42:03;;;;;;;;;;;-1.10;99.90;;;;;;4916953;29;19934;-71
2023/01/27 05:44:35;;;;;;;;;;;-1.10;99.90;;;;;;4889941;29;19927;-71
2023/01/27 05:47:15;;;;;;;;;;;-1.10;99.90;;;;;;4903763;29;19937;-71
2023/01/27 05:49:47;;;;;;;;;;;-1.00;99.90;;;;;;4918035;29;20330;-71
2023/01/27 05:52:19;;;;;;;;;;;-1.10;99.90;;;;;;4898775;29;20009;-71
2023/01/27 05:54:52;;;;;;;;;;;-1.00;99.90;;;;;;4915341;29;19934;-72
2023/01/27 05:57:23;;;;;;;;;;;-1.00;99.90;;;;;;4918305;29;20004;-71
2023/01/27 05:59:55;;;;;;;;;;;-1.00;99.90;;;;;;4917772;29;20562;-71
2023/01/27 06:02:35;;;;;;;;;;;-0.90;99.90;;;;;;4934682;29;19931;-71
2023/01/27 06:05:04;;;;;;;;;;;-0.90;99.90;;;;;;4918471;29;20382;-72
2023/01/27 06:07:48;;;;;;;;;;;-0.90;99.90;;;;;;4920688;29;19938;-70
2023/01/27 06:10:20;;;;;;;;;;;-0.90;99.90;;;;;;4935394;29;19933;-72
2023/01/27 06:12:49;;;;;;;;;;;-1.00;99.90;;;;;;4907160;29;19935;-71
2023/01/27 06:15:21;;;;;;;;;;;-1.00;99.90;;;;;;4915652;29;19927;-72
2023/01/27 06:17:51;;;;;;;;;;;-1.00;99.90;;;;;;4925524;29;19927;-71
2023/01/27 06:20:20;;;;;;;;;;;-1.00;99.90;;;;;;4915346;29;19931;-70
2023/01/27 06:22:49;;;;;;;;;;;-0.90;99.90;;;;;;4918881;29;19951;-72
2023/01/27 06:25:18;;;;;;;;;;;-1.00;99.90;;;;;;4924475;29;19911;-71
2023/01/27 06:27:47;;;;;;;;;;;-0.90;99.90;;;;;;4923581;29;19930;-72
2023/01/27 06:30:17;;;;;;;;;;;-0.90;99.90;;;;;;4924242;29;19994;-70
2023/01/27 06:32:48;;;;;;;;;;;-0.90;99.90;;;;;;4920367;29;19935;-71
2023/01/27 06:35:18;;;;;;;;;;;-0.90;99.90;;;;;;4933091;29;19926;-70
2023/01/27 06:37:48;;;;;;;;;;;-0.90;99.90;;;;;;4900231;29;19979;-70
2023/01/27 06:40:18;;;;;;;;;;;-0.90;99.90;;;;;;4910327;29;20035;-71
2023/01/27 06:42:48;;;;;;;;;;;-0.90;99.90;;;;;;4919279;29;19927;-74
2023/01/27 06:45:17;;;;;;;;;;;-0.90;99.90;;;;;;4915378;29;19927;-73
2023/01/27 06:48:10;;;;;;;;;;;-0.90;99.90;;;;;;4914163;29;19927;-71
2023/01/27 06:50:45;;;;;;;;;;;-0.80;99.90;;;;;;4915225;29;20395;-70
2023/01/27 06:53:13;;;;;;;;;;;-0.90;99.90;;;;;;4908304;29;20014;-70
2023/01/27 06:55:45;;;;;;;;;;;-0.80;99.90;;;;;;4902980;29;20457;-70
2023/01/27 06:58:13;;;;;;;;;;;-0.90;99.90;;;;;;4899447;29;19952;-70
2023/01/27 07:00:43;;;;;;;;;;;-0.90;99.90;;;;;;4932802;29;19927;-70
2023/01/27 07:03:12;;;;;;;;;;;-0.90;99.90;;;;;;4915007;29;20364;-70
2023/01/27 07:05:41;;;;;;;;;;;-0.90;99.90;;;;;;4899537;29;19942;-70
2023/01/27 07:08:10;;;;;;;;;;;-0.90;99.90;;;;;;4924899;29;20304;-71
2023/01/27 07:10:40;;;;;;;;;;;-0.80;99.90;;;;;;4928416;29;20462;-71
2023/01/27 07:13:10;;;;;;;;;;;-0.90;99.90;;;;;;4923452;29;19927;-71
2023/01/27 07:15:40;;;;;;;;;;;-0.90;99.90;;;;;;4916607;29;20450;-70
2023/01/27 07:18:14;;;;;;;;;;;-0.80;99.90;;;;;;4938998;28;19927;-71
2023/01/27 07:20:49;;;;;;;;;;;-0.90;99.90;;;;;;4926635;29;19927;-71
2023/01/27 07:23:23;;;;;;;;;;;-0.90;99.90;;;;;;4930203;29;19934;-72
2023/01/27 07:26:00;;;;;;;;;;;-0.90;99.90;;;;;;4913311;29;20085;-70
2023/01/27 07:28:30;;;;;;;;;;;-1.00;99.90;;;;;;4935817;29;19926;-71
2023/01/27 07:31:00;;;;;;;;;;;-1.00;99.90;;;;;;4903639;29;20042;-72
2023/01/27 07:33:30;;;;;;;;;;;-0.90;99.90;;;;;;4931561;29;19962;-72
2023/01/27 07:35:59;;;;;;;;;;;-0.90;99.90;;;;;;4903396;29;20369;-71
2023/01/27 07:38:28;;;;;;;;;;;-0.90;99.90;;;;;;4921817;29;19934;-72
2023/01/27 07:41:03;;;;;;;;;;;-0.90;99.90;;;;;;4927952;29;19931;-71
2023/01/27 07:43:32;;;;;;;;;;;-0.90;99.90;;;;;;4931837;29;19931;-72
2023/01/27 07:46:07;;;;;;;;;;;-0.90;99.90;;;;;;4898958;29;19974;-71
2023/01/27 07:48:38;;;;;;;;;;;-0.90;99.90;;;;;;4917646;29;19931;-71
2023/01/27 07:51:12;;;;;;;;;;;-0.90;99.90;;;;;;4918657;29;19934;-72
2023/01/27 07:53:42;;;;;;;;;;;-0.90;99.90;;;;;;4915874;29;19969;-71
2023/01/27 07:56:11;;;;;;;;;;;-0.90;99.90;;;;;;4908645;29;19927;-73
2023/01/27 07:58:41;;;;;;;;;;;-1.00;99.90;;;;;;4919548;28;19938;-71
2023/01/27 08:01:17;;;;;;;;;;;-0.90;99.90;;;;;;4935418;29;19950;-72
2023/01/27 08:03:47;;;;;;;;;;;-0.90;99.90;;;;;;4930499;29;20327;-71
2023/01/27 08:06:20;;;;;;;;;;;-1.00;99.90;;;;;;4913460;29;19933;-71
2023/01/27 08:08:49;;;;;;;;;;;-0.90;99.90;;;;;;4930857;29;19953;-70
2023/01/27 08:11:30;;;;;;;;;;;-1.00;99.90;;;;;;4943189;29;19927;-70
2023/01/27 08:14:02;;;;;;;;;;;-1.00;99.90;;;;;;4918177;29;19927;-71
2023/01/27 08:16:31;;;;;;;;;;;-1.00;99.90;;;;;;4916812;29;20042;-71
2023/01/27 08:19:00;;;;;;;;;;;-1.00;99.90;;;;;;4931713;29;19927;-72
2023/01/27 08:21:31;;;;;;;;;;;-1.00;99.90;;;;;;4934293;28;19935;-70
2023/01/27 08:24:04;;;;;;;;;;;-1.00;99.90;;;;;;4921841;29;19979;-71
2023/01/27 08:26:33;;;;;;;;;;;-1.00;99.90;;;;;;4920920;29;19926;-71
2023/01/27 08:29:04;;;;;;;;;;;-1.00;99.90;;;;;;4918103;29;19934;-71
2023/01/27 08:31:33;;;;;;;;;;;-0.90;99.90;;;;;;4933319;29;19926;-71
2023/01/27 08:34:01;;;;;;;;;;;-0.90;99.90;;;;;;4919747;29;19926;-71
2023/01/27 08:36:37;;;;;;;;;;;-0.90;99.90;;;;;;4918968;29;19955;-72
2023/01/27 08:39:06;;;;;;;;;;;-0.90;99.90;;;;;;4927381;29;19926;-72
2023/01/27 08:41:39;;;;;;;;;;;-0.90;99.90;;;;;;4927701;29;19934;-73
2023/01/27 08:44:06;;;;;;;;;;;-0.90;99.90;;;;;;4926752;29;20002;-71
2023/01/27 08:46:34;;;;;;;;;;;-0.90;99.90;;;;;;4924478;29;19927;-71
2023/01/27 08:49:04;;;;;;;;;;;-0.90;99.90;;;;;;4923421;29;20595;-71
2023/01/27 08:51:51;;;;;;;;;;;-0.90;99.90;;;;;;4942237;29;21308;-73
2023/01/27 08:54:22;;;;;;;;;;;-0.90;99.90;;;;;;4920412;29;19927;-71
2023/01/27 08:56:51;;;;;;;;;;;-0.90;99.90;;;;;;4935774;29;19927;-71
2023/01/27 08:59:29;;;;;;;;;;;-0.90;99.90;;;;;;4935495;29;20283;-71
2023/01/27 09:01:57;;;;;;;;;;;-0.90;99.90;;;;;;4932462;29;19937;-71
2023/01/27 09:04:28;;;;;;;;;;;-0.90;99.90;;;;;;4918843;29;19930;-71
2023/01/27 09:06:58;;;;;;;;;;;-1.00;99.90;;;;;;4917764;29;19930;-71
2023/01/27 09:09:28;;;;;;;;;;;-1.00;99.90;;;;;;4916313;29;20351;-71
2023/01/27 09:11:57;;;;;;;;;;;-0.90;99.90;;;;;;4923392;29;19938;-71
2023/01/27 09:14:26;;;;;;;;;;;-1.00;99.90;;;;;;4918418;29;19927;-71
2023/01/27 09:16:55;;;;;;;;;;;-1.00;99.90;;;;;;4917474;29;20299;-70
2023/01/27 09:19:25;;;;;;;;;;;-1.00;99.90;;;;;;4920377;29;20275;-72
2023/01/27 09:21:54;;;;;;;;;;;-1.00;99.90;;;;;;4956931;29;19926;-72
2023/01/27 09:24:24;;;;;;;;;;;-0.90;99.90;;;;;;4925845;29;19927;-74
2023/01/27 09:26:54;;;;;;;;;;;-1.00;99.90;;;;;;4921913;29;20611;-71
2023/01/27 09:29:25;;;;;;;;;;;-1.00;99.90;;;;;;4934472;28;19930;-71
2023/01/27 09:31:55;;;;;;;;;;;-1.00;99.90;;;;;;4918847;29;19942;-71
2023/01/27 09:34:25;;;;;;;;;;;-0.90;99.90;;;;;;4916337;29;19990;-71
2023/01/27 09:36:59;;;;;;;;;;;-0.90;99.90;;;;;;4921135;29;19927;-71
2023/01/27 09:39:34;;;;;;;;;;;-0.90;99.90;;;;;;4917541;29;19926;-72
2023/01/27 09:42:15;;;;;;;;;;;-0.90;99.90;;;;;;4917819;29;20604;-71
2023/01/27 09:44:45;;;;;;;;;;;-0.90;99.90;;;;;;4930041;29;19986;-71
2023/01/27 09:47:27;;;;;;;;;;;-0.90;99.90;;;;;;4908756;29;19934;-71
2023/01/27 09:50:09;;;;;;;;;;;-0.80;99.90;;;;;;4913626;29;20017;-71
2023/01/27 09:53:12;;;;;;;;;;;-0.80;99.90;;;;;;4901267;29;19956;-71
2023/01/27 09:55:52;;;;;;;;;;;-0.70;99.90;;;;;;4909094;29;20716;-71
2023/01/27 09:58:44;;;;;;;;;;;-0.80;99.90;;;;;;4917910;29;19926;-71
2023/01/27 10:01:20;;;;;;;;;;;-0.80;99.90;;;;;;4917289;29;19974;-72
2023/01/27 10:03:56;;;;;;;;;;;-0.80;99.90;;;;;;4930560;29;19939;-71
2023/01/27 10:06:49;;;;;;;;;;;-0.80;99.90;;;;;;4934465;29;20378;-71
2023/01/27 10:09:18;;;;;;;;;;;-0.80;99.90;;;;;;4934124;29;20465;-71
2023/01/27 10:12:06;;;;;;;;;;;-0.80;99.90;;;;;;4932180;29;19939;-71
2023/01/27 10:14:53;;;;;;;;;;;-0.80;99.90;;;;;;4929921;29;20636;-71
2023/01/27 10:17:56;;;;;;;;;;;-0.80;99.90;;;;;;4915056;29;20367;-72
2023/01/27 10:20:29;;;;;;;;;;;-0.70;99.90;;;;;;4932436;28;19927;-71
2023/01/27 10:22:58;;;;;;;;;;;-0.70;99.90;;;;;;4916025;29;19934;-71
2023/01/27 10:25:45;;;;;;;;;;;-0.60;99.90;;;;;;4904820;29;19926;-71
2023/01/27 10:28:16;;;;;;;;;;;-0.60;99.90;;;;;;4931130;29;19930;-71
2023/01/27 10:31:01;;;;;;;;;;;-0.60;99.90;;;;;;4920794;29;19998;-70
2023/01/27 10:33:36;;;;;;;;;;;-0.60;99.90;;;;;;4918093;29;19927;-71
2023/01/27 10:36:15;;;;;;;;;;;-0.60;99.90;;;;;;4901971;29;20018;-72
2023/01/27 10:38:55;;;;;;;;;;;-0.60;99.90;;;;;;4930958;29;20390;-71
2023/01/27 10:41:38;;;;;;;;;;;-0.60;99.90;;;;;;4914889;29;19942;-72
2023/01/27 10:44:09;;;;;;;;;;;-0.50;99.90;;;;;;4916421;29;19983;-71
2023/01/27 10:46:45;;;;;;;;;;;-0.50;99.90;;;;;;4901431;29;20034;-71
2023/01/27 10:49:26;;;;;;;;;;;-0.40;99.90;;;;;;4884956;29;20009;-71
2023/01/27 10:51:57;;;;;;;;;;;-0.30;99.90;;;;;;4930105;29;19926;-72
2023/01/27 10:54:25;;;;;;;;;;;-0.40;99.90;;;;;;4916322;29;19927;-71
2023/01/27 10:57:13;;;;;;;;;;;-0.40;99.90;;;;;;4917273;29;19991;-71
2023/01/27 11:00:12;;;;;;;;;;;-0.40;99.90;;;;;;4900449;29;20031;-72
2023/01/27 11:02:44;;;;;;;;;;;-0.40;99.90;;;;;;4931614;29;19931;-71
2023/01/27 11:05:20;;;;;;;;;;;-0.40;99.90;;;;;;4918142;29;19927;-71
2023/01/27 11:07:53;;;;;;;;;;;-0.50;99.90;;;;;;4932836;29;19926;-72
2023/01/27 11:10:22;;;;;;;;;;;-0.50;99.90;;;;;;4933097;29;19982;-75
2023/01/27 11:12:55;;;;;;;;;;;-0.50;99.90;;;;;;4917789;29;19979;-71
2023/01/27 11:15:28;;;;;;;;;;;-0.50;99.90;;;;;;4916047;29;19935;-71
2023/01/27 11:18:07;;;;;;;;;;;-0.50;99.90;;;;;;4916079;29;20012;-72
2023/01/27 11:20:40;;;;;;;;;;;-0.50;99.90;;;;;;4930626;29;19933;-71
2023/01/27 11:23:16;;;;;;;;;;;-0.40;99.90;;;;;;4914175;29;19938;-71
2023/01/27 11:26:03;;;;;;;;;;;-0.40;99.90;;;;;;4935454;29;19933;-71
2023/01/27 11:28:43;;;;;;;;;;;-0.40;99.90;;;;;;4917013;29;19935;-72
2023/01/27 11:31:18;;;;;;;;;;;-0.30;99.90;;;;;;4952907;28;19934;-70
2023/01/27 11:34:59;;;;;;;;;;;-0.40;99.90;;;;;;4937046;29;19934;-71
2023/01/27 11:37:33;;;;;;;;;;;-0.40;99.90;;;;;;4929926;29;19927;-71
2023/01/27 11:40:03;;;;;;;;;;;-0.30;99.90;;;;;;4934852;29;19927;-71
2023/01/27 11:42:35;;;;;;;;;;;-0.40;99.90;;;;;;4933496;29;19927;-72
2023/01/27 11:45:15;;;;;;;;;;;-0.40;99.90;;;;;;4923000;29;19955;-71
2023/01/27 11:47:55;;;;;;;;;;;-0.30;99.90;;;;;;4922533;29;19927;-71
2023/01/27 11:50:30;;;;;;;;;;;-0.30;99.90;;;;;;4935519;29;19983;-71
2023/01/27 11:53:21;;;;;;;;;;;-0.30;99.90;;;;;;4922358;29;19970;-74
2023/01/27 11:55:59;;;;;;;;;;;-0.30;99.90;;;;;;4939029;29;20458;-72
2023/01/27 11:58:33;;;;;;;;;;;-0.30;99.90;;;;;;4918560;29;19927;-71
2023/01/27 12:01:18;;;;;;;;;;;-0.30;99.90;;;;;;4919578;29;19927;-71
2023/01/27 12:03:53;;;;;;;;;;;-0.30;99.90;;;;;;4920013;29;19931;-71
2023/01/27 12:06:39;;;;;;;;;;;-0.20;99.90;;;;;;4936650;29;19927;-71
2023/01/27 12:09:31;;;;;;;;;;;-0.30;99.90;;;;;;4934781;29;20025;-71
2023/01/27 12:12:26;;;;;;;;;;;-0.30;99.90;;;;;;4930655;29;19927;-71
2023/01/27 12:14:59;;;;;;;;;;;-0.40;99.90;;;;;;4925198;29;19915;-75
2023/01/27 12:17:38;;;;;;;;;;;-0.30;99.90;;;;;;4920360;29;19962;-71
2023/01/27 12:20:49;;;;;;;;;;;-0.30;99.90;;;;;;4934742;29;19986;-71
2023/01/27 12:23:19;;;;;;;;;;;-0.30;99.90;;;;;;4914659;29;19935;-72
2023/01/27 12:25:54;;;;;;;;;;;-0.20;99.90;;;;;;4920541;29;19927;-71
2023/01/27 12:28:35;;;;;;;;;;;-0.10;99.90;;;;;;4904096;29;19975;-71
2023/01/27 12:31:12;;;;;;;;;;;-0.10;99.90;;;;;;4933529;29;19978;-71
2023/01/27 12:33:56;;;;;;;;;;;-0.10;99.90;;;;;;4919415;29;19927;-71
2023/01/27 12:36:40;;;;;;;;;;;-0.10;99.90;;;;;;4926552;29;19975;-72
2023/01/27 12:39:26;;;;;;;;;;;-0.10;99.90;;;;;;4913019;29;20406;-71
2023/01/27 12:41:54;;;;;;;;;;;-0.10;99.90;;;;;;4917483;29;19970;-71
2023/01/27 12:44:28;;;;;;;;;;;0.00;99.90;;;;;;4914665;29;19988;-71
2023/01/27 12:47:30;;;;;;;;;;;0.00;99.90;;;;;;4932673;29;20021;-72
2023/01/27 12:50:18;;;;;;;;;;;0.00;99.90;;;;;;4932511;29;19931;-71
2023/01/27 12:52:51;;;;;;;;;;;0.00;99.90;;;;;;4928296;29;19930;-71
2023/01/27 12:55:27;;;;;;;;;;;0.00;99.90;;;;;;4928887;29;19933;-71
2023/01/27 12:57:55;;;;;;;;;;;0.00;99.90;;;;;;4918010;29;19949;-71
2023/01/27 13:00:26;;;;;;;;;;;0.00;99.90;;;;;;4903462;29;20038;-71
2023/01/27 13:03:03;;;;;;;;;;;0.00;99.90;;;;;;4918727;29;19927;-72
2023/01/27 13:05:36;;;;;;;;;;;-0.10;99.90;;;;;;4935406;29;19927;-73
2023/01/27 13:08:08;;;;;;;;;;;-0.10;99.90;;;;;;4944531;29;19926;-71
2023/01/27 13:10:49;;;;;;;;;;;-0.10;99.90;;;;;;4919419;29;19927;-71
2023/01/27 13:13:20;;;;;;;;;;;-0.10;99.90;;;;;;4945461;28;20371;-72
2023/01/27 13:16:02;;;;;;;;;;;-0.10;99.90;;;;;;4918275;29;20037;-71
2023/01/27 13:18:41;;;;;;;;;;;-0.10;99.90;;;;;;4923884;29;19945;-72
2023/01/27 13:21:17;;;;;;;;;;;0.00;99.90;;;;;;4927809;29;19941;-71
2023/01/27 13:23:47;;;;;;;;;;;0.00;99.90;;;;;;4923983;29;20644;-71
2023/01/27 13:26:19;;;;;;;;;;;0.00;99.90;;;;;;4927715;29;19937;-71
2023/01/27 13:28:53;;;;;;;;;;;0.10;99.90;;;;;;4918644;29;19934;-73
2023/01/27 13:31:34;;;;;;;;;;;0.10;99.90;;;;;;4939269;29;20262;-71
2023/01/27 13:34:10;;;;;;;;;;;0.10;99.90;;;;;;4935010;29;19995;-71
2023/01/27 13:36:42;;;;;;;;;;;0.20;99.90;;;;;;4932533;29;19935;-72
2023/01/27 13:39:20;;;;;;;;;;;0.20;99.90;;;;;;4933014;29;20034;-73
2023/01/27 13:42:24;;;;;;;;;;;0.10;99.90;;;;;;4930137;29;20302;-71
2023/01/27 13:44:58;;;;;;;;;;;0.10;99.90;;;;;;4916769;29;19943;-71
2023/01/27 13:47:45;;;;;;;;;;;0.00;99.90;;;;;;4931205;29;20377;-73
2023/01/27 13:50:30;;;;;;;;;;;0.00;99.90;;;;;;4950070;29;19926;-71
2023/01/27 13:53:02;;;;;;;;;;;0.10;99.90;;;;;;4919464;29;20013;-71
2023/01/27 13:55:49;;;;;;;;;;;0.00;99.90;;;;;;4919704;29;20436;-71
2023/01/27 13:58:22;;;;;;;;;;;0.00;99.90;;;;;;4913736;29;19962;-73
2023/01/27 14:01:07;;;;;;;;;;;0.00;99.90;;;;;;4918603;29;20030;-72
2023/01/27 14:03:44;;;;;;;;;;;0.00;99.90;;;;;;4918479;29;20613;-71
2023/01/27 14:06:23;;;;;;;;;;;-0.10;99.90;;;;;;4945419;29;19934;-70
2023/01/27 14:09:12;;;;;;;;;;;-0.10;99.90;;;;;;4949295;28;19933;-72
2023/01/27 14:11:55;;;;;;;;;;;-0.20;99.90;;;;;;4934827;29;20021;-72
2023/01/27 14:14:27;;;;;;;;;;;-0.20;99.90;;;;;;4906869;29;20377;-71
2023/01/27 14:17:25;;;;;;;;;;;-0.10;99.90;;;;;;4933475;29;19975;-71
2023/01/27 14:19:56;;;;;;;;;;;-0.10;99.90;;;;;;4911664;29;20351;-71
2023/01/27 14:22:45;;;;;;;;;;;-0.10;99.90;;;;;;4932737;29;20768;-73
2023/01/27 14:28:35;;;;;;;;;;;0.00;99.90;;;;;;4931997;29;19934;-71
2023/01/27 14:31:09;;;;;;;;;;;0.00;99.90;;;;;;4931173;29;19982;-70
2023/01/27 14:34:00;;;;;;;;;;;0.00;99.90;;;;;;4930853;29;20033;-74
2023/01/27 14:36:44;;;;;;;;;;;0.10;99.90;;;;;;4916755;29;20390;-70
2023/01/27 14:39:25;;;;;;;;;;;0.10;99.90;;;;;;4946439;29;20454;-70
2023/01/27 14:41:56;;;;;;;;;;;0.10;99.90;;;;;;4918459;29;19927;-71
2023/01/27 14:44:39;;;;;;;;;;;0.10;99.90;;;;;;4929197;29;19935;-71
2023/01/27 14:47:16;;;;;;;;;;;0.10;99.90;;;;;;4913336;29;20006;-72
2023/01/27 14:49:53;;;;;;;;;;;0.10;99.90;;;;;;4907149;29;19926;-71
2023/01/27 14:52:35;;;;;;;;;;;0.10;99.90;;;;;;4910782;29;19927;-72
2023/01/27 14:55:23;;;;;;;;;;;0.10;99.90;;;;;;4932888;29;19966;-73
2023/01/27 14:58:15;;;;;;;;;;;0.10;99.90;;;;;;4911704;29;20416;-71
2023/01/27 15:01:05;;;;;;;;;;;0.10;99.90;;;;;;4910931;29;20037;-70
2023/01/27 15:03:53;;;;;;;;;;;0.10;99.90;;;;;;4922789;29;19962;-72
2023/01/27 15:06:47;;;;;;;;;;;0.10;99.90;;;;;;4933469;29;19987;-72
2023/01/27 15:09:19;;;;;;;;;;;0.00;99.90;;;;;;4950265;29;19931;-73
2023/01/27 15:11:59;;;;;;;;;;;0.00;99.90;;;;;;4911620;29;19969;-72
2023/01/27 15:14:32;;;;;;;;;;;0.00;99.90;;;;;;4911530;29;19927;-71
2023/01/27 15:17:31;;;;;;;;;;;0.10;99.90;;;;;;4905495;29;19927;-71
2023/01/27 15:20:22;;;;;;;;;;;0.10;99.90;;;;;;4914757;29;20597;-71
2023/01/27 15:23:10;;;;;;;;;;;0.10;99.90;;;;;;4932705;29;21470;-71
2023/01/27 15:25:43;;;;;;;;;;;0.10;99.90;;;;;;4918706;29;19934;-71
2023/01/27 15:28:15;;;;;;;;;;;0.10;99.90;;;;;;4931139;29;20453;-71
2023/01/27 15:31:08;;;;;;;;;;;0.00;99.90;;;;;;4918678;29;19930;-71
2023/01/27 15:33:45;;;;;;;;;;;0.00;99.90;;;;;;4933127;29;20293;-71
2023/01/27 15:36:17;;;;;;;;;;;0.00;99.90;;;;;;4914886;29;20330;-71
2023/01/27 15:39:10;;;;;;;;;;;0.00;99.90;;;;;;4916020;29;19934;-72